Blowing Rock, NC

12:30 AM EDT on July 07, 2015 (GMT -0400)
Blowing Rock School | | Change Station
CLOSE
Current Station
Personal Weather Station
Location: Blowing Rock, NC
Elevation: 3540 ft
Nearby Weather Stations

Elev 3540 ft 36.13 °N, 81.68 °W | Updated 2 minutes ago

Clear
Clear
59.3 °F
Feels Like 59.3 °F
N
0.0
Wind Variable Wind from SW
Gusts 0.0 mph

Today
High -- | Low -- °F
--% Chance of Precip.
Yesterday
High -- | Low -- °F
Precip. -- in
6:16 AM 8:46 PM
Waning Gibbous, 69% visible
Pressure 30.23 in
Visibility 7.0 miles
Clouds Scattered Clouds 3900 ft
Dew Point 58 °F
Humidity 96%
Rainfall 0.00 in
Snow Depth Not available.
UV 0 out of 12
Pollen .50 out of 12
Air Quality Not available.
Flu Activity Not available.
METAR KTNB 070415Z AUTO 00000KT 7SM SCT039 17/16 A3023 RMK AO2 T01690155

More Conditions Fewer Conditions

Pressure 30.23 in
Visibility 7.0 miles
Clouds Scattered Clouds 3900 ft
Dew Point 58 °F
Humidity 96%
Rainfall 0.00 in
Snow Depth Not available.
UV 0 out of 12
Pollen .50 out of 12
Air Quality Not available.
Flu Activity Not available.
METAR KTNB 070415Z AUTO 00000KT 7SM SCT039 17/16 A3023 RMK AO2 T01690155

More Conditions Fewer Conditions

10-Day Weather Forecast

×

Almanac

Astronomy

Jul. 07, 2015 Rise Set
Actual Time
Civil Twilight
Nautical Twilight
Astronomical Twilight
Moon
Length of Visible Light
Length of Day
Tomorrow will be .
, % of the Moon is Illuminated

Today's Extremes

State Highs State Lows

Community

WunderPhotos

Upload Photos

1,835,725 photos uploaded!

WunderBlogs® & News

Nearby

Air Quality

  Air Quality AQ Index Pollutant
Not available.

Snow Depth

Station Depth Elevation

Earthquake Activity

City Distance Mag. Time & Date
Minimum magnitude displayed is 2.5.

Coastal Water Temperatures

Place Temperature

Stations

Nearby Weather Stations

Station Location Temp. Windchill Dew Point Humidity Wind Precip. Elev Updated Type